Time;durP1;ratioP1;P1;durP2;ratioP2;P2;SDS_P1;SDS_P2;PMS_P1;PMS_P2;Temp;Humidity;BMP_temperature;BMP_pressure;BME280_temperature;BME280_humidity;BME280_pressure;Samples;Min_cycle;Max_cycle;Signal;HPM_P1;HPM_P2
2022/10/04 00:00:10;;;;;;;1.70;0.68;;;21.30;99.90;;;;;;5026719;28;20198;-70
2022/10/04 00:02:47;;;;;;;1.70;0.57;;;21.40;99.90;;;;;;5024925;28;20194;-75
2022/10/04 00:05:20;;;;;;;1.63;0.60;;;21.50;99.90;;;;;;5025815;28;20221;-70
2022/10/04 00:07:55;;;;;;;2.38;0.60;;;21.40;99.90;;;;;;5027470;28;20221;-70
2022/10/04 00:10:30;;;;;;;9.00;4.57;;;21.40;99.90;;;;;;5026714;28;20210;-75
2022/10/04 00:13:04;;;;;;;2.83;0.80;;;21.40;99.90;;;;;;5028887;28;20216;-76
2022/10/04 00:15:37;;;;;;;1.08;0.60;;;21.20;99.90;;;;;;5023784;28;20208;-74
2022/10/04 00:18:20;;;;;;;1.42;0.57;;;21.20;99.90;;;;;;5027707;28;20295;-72
2022/10/04 00:21:06;;;;;;;0.50;0.50;;;21.30;99.90;;;;;;5031018;28;20195;-74
2022/10/04 00:23:49;;;;;;;1.05;0.77;;;21.40;99.90;;;;;;5026245;28;20206;-73
2022/10/04 00:27:09;;;;;;;0.88;0.60;;;21.60;99.90;;;;;;5030376;28;20213;-73
2022/10/04 00:29:43;;;;;;;2.35;0.60;;;21.80;99.90;;;;;;5032243;28;20272;-70
2022/10/04 00:32:29;;;;;;;1.90;0.75;;;21.80;99.90;;;;;;5029044;28;20244;-73
2022/10/04 00:35:01;;;;;;;8.10;4.38;;;21.70;99.90;;;;;;5027863;28;20209;-75
2022/10/04 00:37:59;;;;;;;0.88;0.70;;;21.80;99.90;;;;;;5028681;28;20229;-74
2022/10/04 00:40:35;;;;;;;0.73;0.55;;;21.90;99.90;;;;;;5023104;28;20203;-71
2022/10/04 00:43:09;;;;;;;2.25;0.70;;;22.00;99.90;;;;;;5021666;28;20659;-70
2022/10/04 00:45:43;;;;;;;1.52;0.60;;;22.20;99.90;;;;;;5029676;28;20218;-74
2022/10/04 00:48:40;;;;;;;1.48;0.63;;;22.30;99.90;;;;;;5025192;28;20205;-71
2022/10/04 00:51:18;;;;;;;1.00;0.60;;;22.40;99.90;;;;;;5022523;28;20198;-70
2022/10/04 00:53:57;;;;;;;1.83;0.50;;;22.60;99.90;;;;;;5027290;28;20208;-72
2022/10/04 00:56:37;;;;;;;0.95;0.60;;;22.70;99.90;;;;;;5029615;28;20198;-73
2022/10/04 00:59:23;;;;;;;1.40;0.52;;;22.70;99.90;;;;;;5027563;28;20205;-72
2022/10/04 01:01:58;;;;;;;2.08;0.60;;;22.70;99.90;;;;;;5029973;28;20205;-75
2022/10/04 01:04:45;;;;;;;1.08;0.60;;;22.80;99.90;;;;;;5026314;28;20210;-74
2022/10/04 01:07:21;;;;;;;2.03;0.70;;;22.60;99.90;;;;;;5026077;28;20561;-73
2022/10/04 01:09:57;;;;;;;1.08;0.65;;;22.50;99.90;;;;;;5025237;28;20280;-77
2022/10/04 01:12:51;;;;;;;2.03;0.73;;;22.80;99.90;;;;;;5029720;28;20209;-78
2022/10/04 01:15:30;;;;;;;5.80;1.58;;;23.00;99.90;;;;;;5021777;28;20284;-75
2022/10/04 01:18:16;;;;;;;2.90;0.80;;;23.20;99.90;;;;;;5023088;28;20194;-74
2022/10/04 01:20:56;;;;;;;2.58;0.80;;;23.10;99.90;;;;;;5021953;28;20209;-74
2022/10/04 01:23:53;;;;;;;1.15;0.80;;;23.20;99.90;;;;;;5027008;28;20197;-74
2022/10/04 01:26:44;;;;;;;2.90;0.63;;;23.10;99.90;;;;;;5019090;28;20206;-76
2022/10/04 01:29:18;;;;;;;2.15;0.70;;;23.20;99.90;;;;;;5019776;28;21647;-77
2022/10/04 01:31:50;;;;;;;1.75;0.70;;;23.30;99.90;;;;;;5027697;28;20194;-78
2022/10/04 01:34:22;;;;;;;0.65;0.52;;;23.40;99.90;;;;;;5023459;28;20212;-71
2022/10/04 01:36:56;;;;;;;1.35;0.60;;;23.30;99.90;;;;;;5026581;28;20198;-75
2022/10/04 01:39:30;;;;;;;1.33;0.70;;;23.40;99.90;;;;;;5022408;28;20865;-76
2022/10/04 01:42:09;;;;;;;1.75;0.70;;;23.40;99.90;;;;;;5025511;28;20194;-74
2022/10/04 01:44:46;;;;;;;2.70;0.80;;;23.50;99.90;;;;;;5026432;28;20213;-74
2022/10/04 05:36:23;;;;;;;2.22;0.90;;;20.80;99.90;;;;;;5105419;27;20297;-76
2022/10/04 05:39:02;;;;;;;2.42;0.90;;;20.70;99.90;;;;;;5098798;28;20208;-75
2022/10/04 05:41:40;;;;;;;2.53;0.80;;;20.60;99.90;;;;;;5099947;28;20192;-74
2022/10/04 05:44:27;;;;;;;7.78;4.68;;;20.60;99.90;;;;;;5102031;28;20200;-74
2022/10/04 05:47:03;;;;;;;1.95;0.82;;;20.50;99.90;;;;;;5100973;28;20201;-71
2022/10/04 05:49:38;;;;;;;2.70;1.08;;;20.30;99.90;;;;;;5094656;28;20207;-74
2022/10/04 05:52:19;;;;;;;2.20;1.05;;;20.20;99.90;;;;;;5095460;28;20199;-75
2022/10/04 05:55:09;;;;;;;1.83;0.80;;;20.10;99.90;;;;;;5099859;28;20225;-72
2022/10/04 05:57:45;;;;;;;1.27;0.80;;;20.10;99.90;;;;;;5097761;28;20301;-73
2022/10/04 06:00:19;;;;;;;2.70;0.90;;;20.00;99.90;;;;;;5101875;28;20195;-75
2022/10/04 06:03:16;;;;;;;2.22;0.82;;;19.90;99.90;;;;;;5102756;28;20287;-72
2022/10/04 06:05:53;;;;;;;3.22;1.02;;;19.90;99.90;;;;;;5104521;28;20195;-74
2022/10/04 06:08:39;;;;;;;4.10;0.90;;;19.90;99.90;;;;;;5093869;28;20198;-73
2022/10/04 06:11:25;;;;;;;4.22;0.90;;;19.90;99.90;;;;;;5103576;28;20192;-74
2022/10/04 06:14:17;;;;;;;2.03;0.70;;;19.90;99.90;;;;;;5102352;28;20214;-74
2022/10/04 06:17:08;;;;;;;2.95;0.80;;;19.90;99.90;;;;;;5103647;28;20196;-73
2022/10/04 06:20:08;;;;;;;1.05;0.80;;;19.80;99.90;;;;;;5095642;28;20210;-73
2022/10/04 06:22:47;;;;;;;3.05;1.10;;;19.80;99.90;;;;;;5079859;28;20210;-74
2022/10/04 06:25:25;;;;;;;0.88;0.80;;;19.80;99.90;;;;;;5099317;28;20192;-70
2022/10/04 06:27:59;;;;;;;2.20;0.70;;;19.70;99.90;;;;;;5101173;28;20206;-72
2022/10/04 06:30:40;;;;;;;2.95;0.70;;;19.70;99.90;;;;;;5096772;28;20196;-70
2022/10/04 06:33:35;;;;;;;1.35;0.68;;;19.70;99.90;;;;;;5094270;28;20203;-70
2022/10/04 06:36:27;;;;;;;1.10;0.70;;;19.60;99.90;;;;;;5103168;28;20210;-72
2022/10/04 06:39:09;;;;;;;1.38;0.55;;;19.50;99.90;;;;;;5102126;28;20188;-73
2022/10/04 06:42:10;;;;;;;1.20;0.68;;;19.40;99.90;;;;;;5104069;28;20274;-73
2022/10/04 06:45:10;;;;;;;4.78;0.90;;;19.30;99.90;;;;;;5094047;28;20210;-74
2022/10/04 06:48:03;;;;;;;1.88;0.88;;;19.30;99.90;;;;;;5089988;28;20648;-71
2022/10/04 06:50:44;;;;;;;0.75;0.60;;;19.30;99.90;;;;;;5089065;28;20196;-72
2022/10/04 06:53:27;;;;;;;1.38;0.65;;;19.20;99.90;;;;;;5082310;28;20215;-73
2022/10/04 06:56:33;;;;;;;1.30;0.68;;;19.20;99.90;;;;;;5089888;28;20210;-73
2022/10/04 06:59:43;;;;;;;1.15;0.75;;;19.10;99.90;;;;;;5045815;28;20230;-71
2022/10/04 07:02:21;;;;;;;2.55;0.77;;;19.10;99.90;;;;;;5042375;28;20273;-73
2022/10/04 07:04:58;;;;;;;1.20;0.75;;;19.00;99.90;;;;;;5088647;28;20196;-73
2022/10/04 07:07:36;;;;;;;3.05;0.68;;;19.00;99.90;;;;;;5085112;28;20202;-70
2022/10/04 07:10:28;;;;;;;1.85;0.65;;;18.90;99.90;;;;;;5086363;28;20192;-74
2022/10/04 07:13:23;;;;;;;2.60;0.70;;;18.90;99.90;;;;;;5090672;28;20612;-70
2022/10/04 07:15:58;;;;;;;1.98;0.70;;;18.90;99.90;;;;;;5087059;28;20231;-73
2022/10/04 07:18:36;;;;;;;1.95;0.70;;;18.80;99.90;;;;;;5079190;28;20201;-73
2022/10/04 07:21:09;;;;;;;1.38;0.88;;;18.80;99.90;;;;;;5088548;28;20282;-73
2022/10/04 07:23:48;;;;;;;1.60;0.73;;;18.80;99.90;;;;;;5085798;28;20562;-72
2022/10/04 07:26:30;;;;;;;0.88;0.70;;;18.70;99.90;;;;;;5076667;28;20651;-73
2022/10/04 07:29:23;;;;;;;1.20;0.63;;;18.70;99.90;;;;;;5083776;28;20216;-73
2022/10/04 07:32:06;;;;;;;1.40;0.60;;;18.70;99.90;;;;;;5081669;28;20672;-72
2022/10/04 07:34:44;;;;;;;1.02;0.50;;;18.70;99.90;;;;;;5082173;28;20232;-73
2022/10/04 07:37:16;;;;;;;2.65;0.70;;;18.70;99.90;;;;;;5084918;28;20199;-72
2022/10/04 07:39:54;;;;;;;1.13;0.65;;;18.60;99.90;;;;;;5085476;28;20654;-73
2022/10/04 07:42:32;;;;;;;2.35;0.60;;;18.60;99.90;;;;;;5078660;28;20203;-73
2022/10/04 07:45:18;;;;;;;1.02;0.60;;;18.50;99.90;;;;;;5086341;28;20731;-73
2022/10/04 07:47:48;;;;;;;1.85;0.80;;;18.50;99.90;;;;;;5086661;28;20557;-73
2022/10/04 07:50:36;;;;;;;2.70;0.80;;;18.50;99.90;;;;;;5084836;28;20206;-73
2022/10/04 07:53:11;;;;;;;2.30;0.70;;;18.50;99.90;;;;;;5088111;28;20192;-72
2022/10/04 07:55:51;;;;;;;1.67;0.60;;;18.40;99.90;;;;;;5087418;28;20223;-73
2022/10/04 07:58:35;;;;;;;2.05;0.70;;;18.40;99.90;;;;;;5089354;28;20197;-72
2022/10/04 08:01:11;;;;;;;1.27;0.80;;;18.40;99.90;;;;;;5086055;28;20192;-73
2022/10/04 08:04:11;;;;;;;2.78;0.77;;;18.40;99.90;;;;;;5081965;28;20188;-73
2022/10/04 08:06:57;;;;;;;1.85;0.77;;;18.40;99.90;;;;;;5086278;28;20200;-73
2022/10/04 08:09:39;;;;;;;2.17;0.90;;;18.30;99.90;;;;;;5086863;28;20201;-73
2022/10/04 08:12:21;;;;;;;1.50;0.85;;;18.30;99.90;;;;;;5088643;28;20549;-73
2022/10/04 08:15:02;;;;;;;1.48;0.90;;;18.20;99.90;;;;;;5080073;28;20701;-72
2022/10/04 08:17:49;;;;;;;1.38;0.85;;;18.20;99.90;;;;;;5079606;28;20544;-71
2022/10/04 08:20:34;;;;;;;3.92;1.00;;;18.20;99.90;;;;;;5089953;28;20196;-73
2022/10/04 08:23:22;;;;;;;2.30;0.75;;;18.20;99.90;;;;;;5083797;28;20198;-73
2022/10/04 08:26:02;;;;;;;0.88;0.73;;;18.20;99.90;;;;;;5087390;28;20195;-70
2022/10/04 08:31:40;;;;;;;6.68;1.00;;;18.20;99.90;;;;;;5081708;28;20997;-73
2022/10/04 08:34:28;;;;;;;3.03;0.90;;;18.10;99.90;;;;;;5085148;28;20705;-70
2022/10/04 08:37:10;;;;;;;2.25;0.80;;;18.10;99.90;;;;;;5083948;28;20195;-74
2022/10/04 08:40:18;;;;;;;1.73;0.90;;;18.10;99.90;;;;;;5080424;28;20539;-70
2022/10/04 08:43:21;;;;;;;3.55;1.00;;;18.10;99.90;;;;;;5089309;28;20204;-71
2022/10/04 08:46:46;;;;;;;2.13;0.77;;;18.10;99.90;;;;;;5067506;28;20204;-72
2022/10/04 08:49:51;;;;;;;2.00;0.90;;;18.10;99.90;;;;;;5088079;28;20201;-73
2022/10/04 08:52:55;;;;;;;1.63;0.90;;;18.00;99.90;;;;;;5083726;28;20199;-72
2022/10/04 08:56:06;;;;;;;2.70;1.10;;;18.00;99.90;;;;;;5089213;28;20220;-73
2022/10/04 08:59:15;;;;;;;4.28;1.00;;;18.00;99.90;;;;;;5084923;28;20196;-73
2022/10/04 09:02:15;;;;;;;1.15;0.70;;;18.00;99.90;;;;;;5061605;28;20215;-72
2022/10/04 09:05:23;;;;;;;2.22;1.00;;;18.00;99.90;;;;;;5081573;28;20192;-74
2022/10/04 09:08:36;;;;;;;2.25;0.90;;;18.00;99.90;;;;;;5076436;28;20200;-73
2022/10/04 09:11:40;;;;;;;1.55;0.90;;;18.00;99.90;;;;;;5087153;28;20547;-73
2022/10/04 09:14:32;;;;;;;1.67;1.00;;;18.00;99.90;;;;;;5083659;28;20251;-73
2022/10/04 09:17:20;;;;;;;1.30;1.05;;;17.90;99.90;;;;;;5087322;28;20554;-74
2022/10/04 09:19:57;;;;;;;1.48;1.10;;;17.90;99.90;;;;;;5081922;28;20633;-73
2022/10/04 09:22:45;;;;;;;2.97;1.08;;;17.90;99.90;;;;;;5079647;28;20197;-70
2022/10/04 09:25:50;;;;;;;2.22;1.10;;;17.90;99.90;;;;;;5082364;28;20228;-73
2022/10/04 09:28:50;;;;;;;2.60;1.23;;;17.90;99.90;;;;;;5088329;28;20277;-71
2022/10/04 09:31:51;;;;;;;2.53;1.00;;;18.00;99.90;;;;;;5084240;28;20200;-73
2022/10/04 09:34:40;;;;;;;3.53;1.40;;;18.00;99.90;;;;;;5079038;28;20227;-73
2022/10/04 09:37:34;;;;;;;2.22;1.45;;;18.00;99.90;;;;;;5077237;28;20192;-71
2022/10/04 09:40:49;;;;;;;2.80;1.40;;;18.00;99.90;;;;;;5073465;28;20216;-72
2022/10/04 09:43:53;;;;;;;2.53;1.20;;;18.00;99.90;;;;;;5073652;28;20302;-73
2022/10/04 09:46:50;;;;;;;2.95;1.40;;;18.00;99.90;;;;;;5065677;28;20204;-73
2022/10/04 09:49:36;;;;;;;4.75;1.63;;;18.00;99.90;;;;;;5081716;28;20196;-70
2022/10/04 09:52:22;;;;;;;1.98;1.30;;;18.00;99.90;;;;;;5084362;28;20189;-73
2022/10/04 09:55:24;;;;;;;3.38;1.38;;;18.00;99.90;;;;;;5088509;28;20255;-70
2022/10/04 09:58:28;;;;;;;4.05;1.20;;;18.00;99.90;;;;;;5070130;28;21120;-70
2022/10/04 10:01:08;;;;;;;1.90;1.40;;;18.00;99.90;;;;;;5087924;28;20695;-72
2022/10/04 10:04:01;;;;;;;3.20;1.20;;;17.90;99.90;;;;;;5086076;28;20380;-73
2022/10/04 10:06:54;;;;;;;2.03;1.27;;;17.90;99.90;;;;;;5084289;28;20250;-72
2022/10/04 10:15:42;;;;;;;1.75;1.30;;;17.90;99.90;;;;;;5086578;28;20253;-72
2022/10/04 10:18:31;;;;;;;2.03;1.00;;;17.90;99.90;;;;;;5087737;28;20196;-73
2022/10/04 10:21:38;;;;;;;3.00;1.00;;;17.90;99.90;;;;;;5078099;28;20216;-71
2022/10/04 10:24:36;;;;;;;1.98;1.00;;;17.80;99.90;;;;;;5081754;28;20206;-72
2022/10/04 10:27:20;;;;;;;3.40;1.55;;;17.80;99.90;;;;;;5083351;28;20193;-73
2022/10/04 10:30:16;;;;;;;4.32;1.60;;;17.80;99.90;;;;;;5081637;28;20226;-69
2022/10/04 10:33:39;;;;;;;2.75;1.60;;;17.80;99.90;;;;;;5083498;28;20254;-72
2022/10/04 10:36:24;;;;;;;4.13;1.40;;;17.80;99.90;;;;;;4963728;28;20231;-70
2022/10/04 10:39:21;;;;;;;3.65;1.30;;;17.80;99.90;;;;;;5061110;28;20197;-72
2022/10/04 10:42:13;;;;;;;3.45;1.20;;;17.80;99.90;;;;;;5063630;28;20208;-74
2022/10/04 10:45:03;;;;;;;4.85;1.30;;;17.80;99.90;;;;;;5011695;28;20300;-71
2022/10/04 10:47:46;;;;;;;4.72;1.30;;;17.80;99.90;;;;;;5059532;28;20189;-73
2022/10/04 10:50:57;;;;;;;2.58;1.33;;;17.90;99.90;;;;;;5058580;28;20193;-73
2022/10/04 10:54:28;;;;;;;2.75;1.30;;;17.90;99.90;;;;;;5064689;28;20193;-73
2022/10/04 10:57:16;;;;;;;2.58;1.30;;;17.90;99.90;;;;;;5063444;28;20307;-71
2022/10/04 11:00:21;;;;;;;3.50;1.30;;;17.90;99.90;;;;;;5066660;28;20199;-71
2022/10/04 11:03:23;;;;;;;5.60;1.30;;;17.90;99.90;;;;;;5062719;28;20888;-70
2022/10/04 11:06:28;;;;;;;4.38;1.40;;;17.90;99.90;;;;;;5023182;28;20573;-71
2022/10/04 11:09:29;;;;;;;3.90;1.40;;;17.90;99.90;;;;;;5028437;28;20235;-70
2022/10/04 11:12:37;;;;;;;3.13;1.35;;;17.90;99.90;;;;;;5066537;28;20201;-72
2022/10/04 11:15:48;;;;;;;2.45;1.27;;;17.90;99.90;;;;;;4989326;28;20653;-72
2022/10/04 11:19:05;;;;;;;3.45;1.20;;;17.80;99.90;;;;;;5056981;28;20680;-70
2022/10/04 11:22:10;;;;;;;2.40;1.10;;;17.80;99.90;;;;;;5064678;28;20189;-72
2022/10/04 11:25:23;;;;;;;4.50;1.20;;;17.80;99.90;;;;;;5064331;28;20197;-73
2022/10/04 11:28:04;;;;;;;3.50;1.13;;;17.80;99.90;;;;;;5036986;28;20205;-73
2022/10/04 11:31:02;;;;;;;1.95;1.10;;;17.80;99.90;;;;;;5061851;28;20199;-72
2022/10/04 11:34:01;;;;;;;2.15;1.20;;;17.70;99.90;;;;;;5068468;28;20232;-72
2022/10/04 11:36:42;;;;;;;5.32;1.30;;;17.70;99.90;;;;;;5083955;28;20215;-71
2022/10/04 11:39:33;;;;;;;3.03;1.42;;;17.70;99.90;;;;;;5082517;28;20192;-72
2022/10/04 11:42:18;;;;;;;2.17;1.33;;;17.70;99.90;;;;;;5088241;28;20201;-73
2022/10/04 11:45:18;;;;;;;3.00;1.13;;;17.70;99.90;;;;;;5083836;28;20245;-73
2022/10/04 11:48:00;;;;;;;3.50;1.40;;;17.70;99.90;;;;;;5083337;28;20212;-73
2022/10/04 11:50:50;;;;;;;4.20;1.38;;;17.70;99.90;;;;;;5080096;28;20193;-73
2022/10/04 11:53:52;;;;;;;2.83;1.33;;;17.70;99.90;;;;;;5078148;28;20193;-73
2022/10/04 11:56:43;;;;;;;1.90;1.23;;;17.70;99.90;;;;;;5083306;28;20373;-73
2022/10/04 11:59:37;;;;;;;3.58;1.20;;;17.70;99.90;;;;;;5084641;28;20192;-74
2022/10/04 12:02:35;;;;;;;4.55;1.20;;;17.60;99.90;;;;;;5079125;28;20196;-73
2022/10/04 12:05:54;;;;;;;2.53;1.20;;;17.60;99.90;;;;;;5081879;28;20208;-73
2022/10/04 12:08:41;;;;;;;2.03;0.98;;;17.60;99.90;;;;;;5082334;28;20653;-73
2022/10/04 12:14:52;;;;;;;4.47;1.27;;;17.60;99.90;;;;;;5079755;28;20228;-72
2022/10/04 12:18:06;;;;;;;2.42;1.08;;;17.60;99.90;;;;;;5085049;28;20300;-71
2022/10/04 12:21:11;;;;;;;2.78;1.00;;;17.60;99.90;;;;;;5087412;28;20203;-73
2022/10/04 12:23:58;;;;;;;1.45;1.00;;;17.60;99.90;;;;;;5080988;28;20325;-72
2022/10/04 12:27:10;;;;;;;1.95;0.98;;;17.60;99.90;;;;;;5084073;28;20690;-73
2022/10/04 12:30:14;;;;;;;2.53;1.00;;;17.60;99.90;;;;;;5072914;28;20565;-72
2022/10/04 12:32:53;;;;;;;2.70;0.90;;;17.60;99.90;;;;;;5079246;28;20188;-73
2022/10/04 12:35:30;;;;;;;5.20;1.05;;;17.60;99.90;;;;;;5080960;28;20232;-73
2022/10/04 12:38:22;;;;;;;2.28;0.88;;;17.60;99.90;;;;;;5086767;28;20295;-74
2022/10/04 12:41:02;;;;;;;2.20;0.90;;;17.60;99.90;;;;;;5086363;28;20203;-70
2022/10/04 12:43:41;;;;;;;2.70;0.90;;;17.60;99.90;;;;;;5080494;28;20197;-74
2022/10/04 12:46:28;;;;;;;3.83;0.90;;;17.50;99.90;;;;;;5081979;28;20196;-74
2022/10/04 12:49:22;;;;;;;1.80;0.80;;;17.50;99.90;;;;;;5085717;28;20295;-72
2022/10/04 12:51:59;;;;;;;1.23;0.80;;;17.50;99.90;;;;;;5080425;28;20675;-69
2022/10/04 12:54:38;;;;;;;1.85;0.80;;;17.50;99.90;;;;;;5079981;28;20203;-72
2022/10/04 12:57:30;;;;;;;4.93;1.00;;;17.50;99.90;;;;;;5080962;28;20208;-71
2022/10/04 13:00:14;;;;;;;5.45;0.70;;;17.50;99.90;;;;;;5080562;28;20224;-74
2022/10/04 13:03:22;;;;;;;2.03;0.63;;;17.50;99.90;;;;;;5080415;28;20240;-73
2022/10/04 13:06:03;;;;;;;2.70;1.38;;;17.50;99.90;;;;;;5033799;28;20204;-70
2022/10/04 13:08:55;;;;;;;1.38;0.90;;;17.50;99.90;;;;;;5078480;28;20201;-74
2022/10/04 13:11:51;;;;;;;2.65;0.80;;;17.50;99.90;;;;;;5079323;28;20192;-74
2022/10/04 13:14:59;;;;;;;1.80;0.80;;;17.50;99.90;;;;;;5083453;28;20188;-73
2022/10/04 13:17:42;;;;;;;3.60;0.68;;;17.50;99.90;;;;;;5076251;28;20597;-72
2022/10/04 13:20:40;;;;;;;1.70;0.70;;;17.50;99.90;;;;;;5083419;28;20188;-72
2022/10/04 13:23:19;;;;;;;1.33;0.65;;;17.50;99.90;;;;;;5082533;28;20192;-71
2022/10/04 13:26:16;;;;;;;1.65;0.80;;;17.50;99.90;;;;;;5078605;28;20200;-73
2022/10/04 13:29:01;;;;;;;1.67;1.02;;;17.50;99.90;;;;;;5079444;28;20219;-74
2022/10/04 13:31:38;;;;;;;0.80;0.50;;;17.50;99.90;;;;;;5079746;28;20279;-74
2022/10/04 13:34:23;;;;;;;2.72;0.80;;;17.50;99.90;;;;;;5075945;28;20245;-74
2022/10/04 13:37:34;;;;;;;0.88;0.63;;;17.50;99.90;;;;;;5083549;28;20345;-74
2022/10/04 13:40:41;;;;;;;1.58;0.88;;;17.40;99.90;;;;;;5005040;28;20194;-74
2022/10/04 13:43:34;;;;;;;2.25;1.00;;;17.40;99.90;;;;;;5000341;28;20199;-74
2022/10/04 13:46:23;;;;;;;1.08;0.70;;;17.50;99.90;;;;;;5076203;28;20291;-74
2022/10/04 13:49:15;;;;;;;1.75;0.70;;;17.50;99.90;;;;;;5078894;28;20211;-74
2022/10/04 13:57:53;;;;;;;2.45;0.75;;;17.50;99.90;;;;;;5085834;28;20216;-74
2022/10/04 14:00:42;;;;;;;1.50;0.70;;;17.50;99.90;;;;;;5088190;28;20192;-70
2022/10/04 14:03:42;;;;;;;1.38;0.90;;;17.50;99.90;;;;;;5086318;28;20626;-69
2022/10/04 14:06:40;;;;;;;4.30;0.85;;;17.50;99.90;;;;;;5082535;28;20667;-74
2022/10/04 14:09:47;;;;;;;2.50;0.90;;;17.50;99.90;;;;;;5086830;28;20647;-74
2022/10/04 14:13:04;;;;;;;2.25;0.73;;;17.50;99.90;;;;;;5070194;28;20560;-74
2022/10/04 14:16:02;;;;;;;3.00;0.98;;;17.50;99.90;;;;;;4981370;28;20330;-73
2022/10/04 14:19:25;;;;;;;1.30;0.80;;;17.40;99.90;;;;;;5087000;28;20269;-74
2022/10/04 14:22:22;;;;;;;1.58;0.80;;;17.40;99.90;;;;;;5011667;28;20198;-73
2022/10/04 14:25:30;;;;;;;1.88;0.90;;;17.40;99.90;;;;;;5027676;28;20221;-71
2022/10/04 14:28:32;;;;;;;2.00;0.90;;;17.40;99.90;;;;;;5037118;28;20210;-73
2022/10/04 14:31:24;;;;;;;1.70;0.70;;;17.40;99.90;;;;;;5032899;28;20684;-74
2022/10/04 14:34:38;;;;;;;2.80;0.90;;;17.40;99.90;;;;;;5088270;28;20229;-71
2022/10/04 14:37:52;;;;;;;2.60;0.80;;;17.40;99.90;;;;;;5069129;28;20227;-73
2022/10/04 14:40:46;;;;;;;3.03;1.00;;;17.40;99.90;;;;;;5081559;28;20192;-74
2022/10/04 14:43:53;;;;;;;4.00;1.02;;;17.40;99.90;;;;;;5092835;28;20244;-73
2022/10/04 14:46:36;;;;;;;2.53;1.00;;;17.40;99.90;;;;;;5081115;28;20569;-72
2022/10/04 14:49:15;;;;;;;2.15;1.08;;;17.40;99.90;;;;;;5089392;28;20196;-73
2022/10/04 14:52:03;;;;;;;5.22;1.55;;;17.40;99.90;;;;;;5092895;28;20195;-71
2022/10/04 14:54:43;;;;;;;5.03;1.83;;;17.50;99.90;;;;;;5083843;28;20257;-74
2022/10/04 14:57:23;;;;;;;6.55;2.63;;;17.50;99.90;;;;;;5089132;28;20222;-69
2022/10/04 15:00:05;;;;;;;9.10;2.75;;;17.40;99.90;;;;;;5083229;28;20196;-72
2022/10/04 15:03:13;;;;;;;6.68;2.60;;;17.40;99.90;;;;;;5088186;28;20196;-71
2022/10/04 15:06:27;;;;;;;5.20;2.80;;;17.40;99.90;;;;;;5083475;28;20192;-74
2022/10/04 15:09:19;;;;;;;13.80;3.30;;;17.30;99.90;;;;;;5048010;28;20218;-74
2022/10/04 15:11:58;;;;;;;9.65;2.92;;;17.20;99.90;;;;;;5082053;28;20204;-75
2022/10/04 15:14:44;;;;;;;10.75;2.85;;;17.20;99.90;;;;;;5078420;28;20664;-73
2022/10/04 15:17:28;;;;;;;9.82;3.05;;;17.10;99.90;;;;;;5085757;28;20212;-74
2022/10/04 15:20:19;;;;;;;9.60;3.15;;;17.10;99.90;;;;;;5084039;28;20227;-74
2022/10/04 15:22:55;;;;;;;10.88;3.40;;;17.00;99.90;;;;;;5087916;28;20214;-75
2022/10/04 15:25:45;;;;;;;8.07;3.33;;;17.00;99.90;;;;;;5089818;28;20286;-75
2022/10/04 15:28:45;;;;;;;8.05;3.00;;;16.90;99.90;;;;;;5078394;28;20286;-75
2022/10/04 15:31:25;;;;;;;10.98;3.08;;;16.90;99.90;;;;;;5090604;28;20566;-74
2022/10/04 15:34:04;;;;;;;9.93;3.50;;;16.90;99.90;;;;;;5088737;28;20231;-73
2022/10/04 15:36:51;;;;;;;12.60;3.30;;;16.80;99.90;;;;;;5092651;28;20207;-74
2022/10/04 15:39:46;;;;;;;10.23;3.60;;;16.70;99.90;;;;;;5091536;28;20623;-74
2022/10/04 15:42:25;;;;;;;10.70;3.45;;;16.70;99.90;;;;;;5085028;28;20565;-72
2022/10/04 15:45:26;;;;;;;13.98;4.03;;;16.60;99.90;;;;;;5086896;28;20192;-74
2022/10/04 15:48:14;;;;;;;10.10;3.08;;;16.50;99.90;;;;;;5080989;28;20196;-72
2022/10/04 15:50:59;;;;;;;6.55;2.60;;;16.50;99.90;;;;;;5087548;28;20195;-72
2022/10/04 15:53:47;;;;;;;9.30;3.00;;;16.40;99.90;;;;;;5091904;28;20289;-73
2022/10/04 15:56:34;;;;;;;6.82;3.08;;;16.30;99.90;;;;;;5080861;28;20220;-72
2022/10/04 15:59:38;;;;;;;12.50;3.33;;;16.30;99.90;;;;;;5085304;28;20199;-72
2022/10/04 16:02:39;;;;;;;13.57;4.18;;;16.20;99.90;;;;;;5083401;28;20199;-72
2022/10/04 16:05:22;;;;;;;11.93;3.80;;;16.10;99.90;;;;;;5088071;28;20198;-72
2022/10/04 16:08:15;;;;;;;12.82;3.75;;;16.10;99.90;;;;;;5085849;28;20199;-71
2022/10/04 16:11:15;;;;;;;11.23;3.83;;;16.10;99.90;;;;;;5051857;28;20219;-72
2022/10/04 16:14:05;;;;;;;12.23;4.25;;;16.10;99.90;;;;;;5081875;28;20658;-73
2022/10/04 16:17:09;;;;;;;12.35;3.92;;;16.00;99.90;;;;;;5091649;28;20222;-72
2022/10/04 16:19:53;;;;;;;11.38;4.10;;;16.00;99.90;;;;;;5067355;28;20261;-73
2022/10/04 16:22:31;;;;;;;12.07;3.95;;;15.90;99.90;;;;;;5081584;28;20196;-72
2022/10/04 16:25:24;;;;;;;10.85;3.78;;;15.90;99.90;;;;;;5090246;28;20199;-73
2022/10/04 16:28:11;;;;;;;8.55;3.65;;;15.90;99.90;;;;;;5081211;28;20211;-73
2022/10/04 16:30:47;;;;;;;8.35;3.60;;;15.90;99.90;;;;;;5085588;28;20192;-73
2022/10/04 16:33:33;;;;;;;17.55;4.35;;;15.80;99.90;;;;;;5086647;28;20202;-72
2022/10/04 16:36:25;;;;;;;12.00;3.85;;;15.80;99.90;;;;;;5087575;28;20253;-72
2022/10/04 16:41:56;;;;;;;10.95;3.50;;;15.70;99.90;;;;;;5090012;28;20327;-72
2022/10/04 16:44:35;;;;;;;9.80;3.50;;;15.70;99.90;;;;;;5077676;28;20253;-72
2022/10/04 16:47:21;;;;;;;8.30;3.90;;;15.70;99.90;;;;;;5076896;28;20203;-70
2022/10/04 16:49:55;;;;;;;10.18;3.53;;;15.60;99.90;;;;;;5087573;28;20196;-72
2022/10/04 16:52:49;;;;;;;9.52;3.60;;;15.60;99.90;;;;;;5085160;28;20199;-72
2022/10/04 16:56:04;;;;;;;14.98;4.10;;;15.60;99.90;;;;;;5082235;28;20200;-72
2022/10/04 16:58:53;;;;;;;11.35;3.53;;;15.60;99.90;;;;;;5075327;28;20224;-72
2022/10/04 17:01:57;;;;;;;7.20;3.47;;;15.60;99.90;;;;;;5082787;28;22061;-72
2022/10/04 17:04:54;;;;;;;10.52;3.95;;;15.60;99.90;;;;;;5084553;28;20196;-73
2022/10/04 17:07:54;;;;;;;9.52;3.80;;;15.50;99.90;;;;;;5081076;28;20257;-72
2022/10/04 17:10:39;;;;;;;9.98;3.47;;;15.60;99.90;;;;;;5088694;28;20223;-72
2022/10/04 17:13:25;;;;;;;15.27;3.80;;;15.50;99.90;;;;;;5084783;28;20545;-72
2022/10/04 17:16:06;;;;;;;8.35;3.88;;;15.50;99.90;;;;;;5087491;28;20196;-72
2022/10/04 17:18:50;;;;;;;10.70;3.65;;;15.50;99.90;;;;;;5090413;28;20226;-73
2022/10/04 17:21:32;;;;;;;9.80;3.78;;;15.50;99.90;;;;;;5086705;28;20200;-73
2022/10/04 17:24:19;;;;;;;6.68;3.50;;;15.50;99.90;;;;;;5083107;28;20548;-72
2022/10/04 17:27:15;;;;;;;12.80;3.80;;;15.50;99.90;;;;;;5079252;28;20212;-73
2022/10/04 17:29:57;;;;;;;12.13;4.00;;;15.50;99.90;;;;;;5082530;28;20602;-73
2022/10/04 17:32:36;;;;;;;11.68;3.75;;;15.50;99.90;;;;;;5084333;28;20192;-73
2022/10/04 17:35:33;;;;;;;13.38;3.45;;;15.50;99.90;;;;;;5081752;28;20236;-73
2022/10/04 17:38:09;;;;;;;13.32;3.58;;;15.50;99.90;;;;;;5081553;28;20216;-73
2022/10/04 17:40:46;;;;;;;10.93;3.25;;;15.50;99.90;;;;;;5078209;28;20196;-73
2022/10/04 17:43:28;;;;;;;11.07;3.67;;;15.50;99.90;;;;;;5081211;28;20647;-71
2022/10/04 17:46:17;;;;;;;9.00;3.20;;;15.40;99.90;;;;;;5081690;28;20648;-72
2022/10/04 17:57:46;;;;;;;9.60;2.97;;;15.40;99.90;;;;;;5044257;28;20598;-73
2022/10/04 18:00:20;;;;;;;5.63;2.47;;;15.40;99.90;;;;;;5085677;28;20207;-73
2022/10/04 18:03:10;;;;;;;9.75;3.10;;;15.40;99.90;;;;;;5086585;28;20195;-73
2022/10/04 18:05:53;;;;;;;11.38;2.80;;;15.40;99.90;;;;;;5078353;28;20220;-73
2022/10/04 18:08:43;;;;;;;7.70;3.28;;;15.40;99.90;;;;;;5085321;28;20192;-72
2022/10/04 18:11:24;;;;;;;8.80;2.90;;;15.40;99.90;;;;;;5083558;28;20196;-72
2022/10/04 18:14:06;;;;;;;10.45;2.80;;;15.40;99.90;;;;;;5081540;28;20196;-72
2022/10/04 18:16:53;;;;;;;13.32;2.63;;;15.40;99.90;;;;;;5076887;28;20200;-73
2022/10/04 18:19:38;;;;;;;12.13;3.15;;;15.40;99.90;;;;;;5084223;28;20204;-73
2022/10/04 18:22:15;;;;;;;12.57;3.08;;;15.40;99.90;;;;;;5081070;28;20203;-72
2022/10/04 18:24:47;;;;;;;10.65;2.70;;;15.30;99.90;;;;;;5085361;28;20200;-72
2022/10/04 18:27:22;;;;;;;15.43;2.70;;;15.30;99.90;;;;;;5081260;28;20715;-72
2022/10/04 18:30:13;;;;;;;9.23;2.80;;;15.20;99.90;;;;;;5080666;28;20315;-72
2022/10/04 18:32:49;;;;;;;13.55;3.05;;;15.20;99.90;;;;;;5079197;28;20196;-73
2022/10/04 18:35:26;;;;;;;6.53;2.58;;;15.20;99.90;;;;;;5080816;28;20710;-72
2022/10/04 18:37:58;;;;;;;9.02;2.38;;;15.20;99.90;;;;;;5083652;28;20570;-71
2022/10/04 18:40:33;;;;;;;8.73;2.75;;;15.20;99.90;;;;;;5081630;28;20204;-72
2022/10/04 18:43:11;;;;;;;6.38;2.50;;;15.20;99.90;;;;;;5084058;28;20269;-72
2022/10/04 18:45:41;;;;;;;8.82;2.67;;;15.20;99.90;;;;;;5081555;28;20188;-70
2022/10/04 18:48:37;;;;;;;10.70;2.65;;;15.20;99.90;;;;;;5086256;28;20640;-71
2022/10/04 18:51:28;;;;;;;6.82;2.33;;;15.20;99.90;;;;;;5084266;28;20195;-71
2022/10/04 18:54:10;;;;;;;9.35;2.22;;;15.20;99.90;;;;;;5079167;28;20188;-73
2022/10/04 18:56:52;;;;;;;11.25;2.53;;;15.20;99.90;;;;;;5087102;28;20214;-72